Time;durP1;ratioP1;P1;durP2;ratioP2;P2;SDS_P1;SDS_P2;PMS_P1;PMS_P2;Temp;Humidity;BMP_temperature;BMP_pressure;BME280_temperature;BME280_humidity;BME280_pressure;Samples;Min_cycle;Max_cycle;Signal;HPM_P1;HPM_P2
2022/02/14 00:00:49;;;;;;;10.75;8.18;;;;;;;;;;5020205;28;20175;-72
2022/02/14 00:03:15;;;;;;;9.43;8.43;;;;;;;;;;5028703;28;20664;-72
2022/02/14 00:05:42;;;;;;;9.70;8.35;;;;;;;;;;5027327;28;20555;-72
2022/02/14 00:08:08;;;;;;;11.50;9.05;;;;;;;;;;5027461;28;20041;-73
2022/02/14 00:10:34;;;;;;;12.20;8.82;;;;;;;;;;5018538;28;20529;-72
2022/02/14 00:13:00;;;;;;;13.30;9.10;;;;;;;;;;5010875;28;20046;-72
2022/02/14 00:15:27;;;;;;;11.18;8.75;;;;;;;;;;5018617;28;20053;-73
2022/02/14 00:17:53;;;;;;;9.60;8.55;;;;;;;;;;5030406;28;20037;-72
2022/02/14 00:20:19;;;;;;;11.60;8.35;;;;;;;;;;5002919;28;20025;-72
2022/02/14 00:22:45;;;;;;;13.85;8.98;;;;;;;;;;5024065;28;20029;-72
2022/02/14 00:25:13;;;;;;;9.63;8.60;;;;;;;;;;5015506;28;20502;-73
2022/02/14 00:27:40;;;;;;;9.85;8.60;;;;;;;;;;5024787;28;20029;-73
2022/02/14 00:30:06;;;;;;;9.18;7.88;;;;;;;;;;5016612;28;20040;-73
2022/02/14 00:32:33;;;;;;;11.60;10.00;;;;;;;;;;5028809;28;20031;-73
2022/02/14 00:35:00;;;;;;;11.43;9.00;;;;;;;;;;5028537;28;20068;-73
2022/02/14 00:37:26;;;;;;;11.98;9.40;;;;;;;;;;5026262;28;20025;-73
2022/02/14 00:39:52;;;;;;;12.95;10.35;;;;;;;;;;5019914;28;20116;-73
2022/02/14 00:42:18;;;;;;;15.80;9.77;;;;;;;;;;5020857;28;20029;-73
2022/02/14 00:44:45;;;;;;;12.07;9.88;;;;;;;;;;5018212;28;20490;-73
2022/02/14 00:47:11;;;;;;;13.73;9.63;;;;;;;;;;5015912;28;20474;-73
2022/02/14 00:49:37;;;;;;;11.13;9.57;;;;;;;;;;5033941;28;20017;-72
2022/02/14 00:52:04;;;;;;;10.68;9.35;;;;;;;;;;5013166;28;20026;-73
2022/02/14 00:54:30;;;;;;;10.38;8.93;;;;;;;;;;5019428;28;20033;-72
2022/02/14 00:56:56;;;;;;;11.77;9.60;;;;;;;;;;5013932;28;20029;-73
2022/02/14 00:59:22;;;;;;;11.32;8.98;;;;;;;;;;5020334;28;20054;-73
2022/02/14 01:01:49;;;;;;;11.93;8.95;;;;;;;;;;5020162;28;20509;-73
2022/02/14 01:04:15;;;;;;;11.73;8.80;;;;;;;;;;5021377;28;20029;-72
2022/02/14 01:06:42;;;;;;;13.23;8.70;;;;;;;;;;5018196;28;20018;-73
2022/02/14 01:09:09;;;;;;;11.82;8.82;;;;;;;;;;5020167;28;20079;-72
2022/02/14 01:11:35;;;;;;;12.73;8.80;;;;;;;;;;5020409;28;20434;-73
2022/02/14 01:14:01;;;;;;;9.55;8.32;;;;;;;;;;5020424;28;20064;-73
2022/02/14 01:16:27;;;;;;;9.48;7.90;;;;;;;;;;5020533;28;20489;-72
2022/02/14 01:18:53;;;;;;;12.50;8.10;;;;;;;;;;5015885;28;20049;-72
2022/02/14 01:21:19;;;;;;;9.93;8.45;;;;;;;;;;5014871;28;20036;-73
2022/02/14 01:23:45;;;;;;;10.30;8.23;;;;;;;;;;5018800;28;20052;-72
2022/02/14 01:26:12;;;;;;;8.57;7.25;;;;;;;;;;5014057;28;20760;-73
2022/02/14 01:28:38;;;;;;;12.55;7.88;;;;;;;;;;5026629;28;20396;-73
2022/02/14 01:31:04;;;;;;;8.98;8.02;;;;;;;;;;5019630;28;20029;-73
2022/02/14 01:33:30;;;;;;;7.75;6.90;;;;;;;;;;5023355;28;20086;-73
2022/02/14 01:35:56;;;;;;;8.85;7.40;;;;;;;;;;5019081;28;20926;-73
2022/02/14 01:38:22;;;;;;;8.65;7.00;;;;;;;;;;5021497;28;20033;-73
2022/02/14 01:40:49;;;;;;;8.57;7.60;;;;;;;;;;5016181;28;20033;-73
2022/02/14 01:43:15;;;;;;;10.23;6.97;;;;;;;;;;5022830;28;20038;-73
2022/02/14 01:45:45;;;;;;;7.75;6.65;;;;;;;;;;5032441;28;20179;-72
2022/02/14 01:48:11;;;;;;;7.60;6.80;;;;;;;;;;5015824;28;20026;-73
2022/02/14 01:50:38;;;;;;;9.73;7.30;;;;;;;;;;5014240;28;20025;-72
2022/02/14 01:53:04;;;;;;;10.40;7.50;;;;;;;;;;5016717;28;20032;-72
2022/02/14 01:55:32;;;;;;;9.00;7.47;;;;;;;;;;4998679;28;20486;-72
2022/02/14 01:58:00;;;;;;;8.13;7.05;;;;;;;;;;5016879;28;20131;-73
2022/02/14 02:00:26;;;;;;;10.18;7.28;;;;;;;;;;5025385;28;20018;-73
2022/02/14 02:02:52;;;;;;;10.75;7.80;;;;;;;;;;5033032;28;20025;-73
2022/02/14 02:05:18;;;;;;;9.88;7.70;;;;;;;;;;5016390;28;20025;-73
2022/02/14 02:07:45;;;;;;;8.25;6.93;;;;;;;;;;5021666;28;20085;-73
2022/02/14 02:10:12;;;;;;;11.32;7.57;;;;;;;;;;5019297;28;20115;-73
2022/02/14 02:12:47;;;;;;;9.93;7.57;;;;;;;;;;5017621;28;20101;-73
2022/02/14 02:15:13;;;;;;;11.02;8.15;;;;;;;;;;5016568;28;20041;-73
2022/02/14 02:17:40;;;;;;;10.40;7.65;;;;;;;;;;5013972;28;20064;-73
2022/02/14 02:20:08;;;;;;;9.15;7.40;;;;;;;;;;5019124;28;20104;-72
2022/02/14 02:22:34;;;;;;;8.98;7.75;;;;;;;;;;5013337;28;20083;-73
2022/02/14 02:25:01;;;;;;;8.35;7.47;;;;;;;;;;5017236;28;20379;-73
2022/02/14 02:27:28;;;;;;;10.70;8.25;;;;;;;;;;5018324;28;20028;-73
2022/02/14 02:29:55;;;;;;;11.25;8.15;;;;;;;;;;5014254;28;20041;-73
2022/02/14 02:32:21;;;;;;;11.57;8.63;;;;;;;;;;5039700;28;20025;-73
2022/02/14 02:34:47;;;;;;;9.70;7.93;;;;;;;;;;5017411;28;20112;-73
2022/02/14 02:37:15;;;;;;;9.23;8.25;;;;;;;;;;5015410;28;20533;-73
2022/02/14 02:39:41;;;;;;;11.30;8.57;;;;;;;;;;5018851;28;20038;-72
2022/02/14 02:42:08;;;;;;;9.30;8.10;;;;;;;;;;5019404;28;20052;-73
2022/02/14 02:44:35;;;;;;;11.15;8.25;;;;;;;;;;5011299;28;20021;-73
2022/02/14 02:47:03;;;;;;;11.20;8.63;;;;;;;;;;5017270;28;20022;-72
2022/02/14 02:49:29;;;;;;;13.18;8.27;;;;;;;;;;5008553;28;20030;-72
2022/02/14 02:51:56;;;;;;;9.10;8.20;;;;;;;;;;5015774;28;20865;-73
2022/02/14 02:54:22;;;;;;;11.52;8.90;;;;;;;;;;5012753;28;20165;-72
2022/02/14 02:56:49;;;;;;;14.07;8.32;;;;;;;;;;5017972;28;20423;-73
2022/02/14 02:59:16;;;;;;;12.85;8.55;;;;;;;;;;5018505;28;20041;-73
2022/02/14 03:01:42;;;;;;;10.52;9.02;;;;;;;;;;5014963;28;20068;-72
2022/02/14 03:04:10;;;;;;;10.57;8.70;;;;;;;;;;5022508;28;20035;-73
2022/02/14 03:06:37;;;;;;;10.57;8.70;;;;;;;;;;5018720;28;20114;-72
2022/02/14 03:09:04;;;;;;;10.10;8.23;;;;;;;;;;5015644;28;20034;-72
2022/02/14 03:11:31;;;;;;;9.43;7.82;;;;;;;;;;5017057;28;20029;-72
2022/02/14 03:13:57;;;;;;;9.05;7.82;;;;;;;;;;5018650;28;20087;-72
2022/02/14 03:16:23;;;;;;;9.35;7.72;;;;;;;;;;5000479;28;20037;-72
2022/02/14 03:18:50;;;;;;;10.68;7.95;;;;;;;;;;5011248;28;20521;-72
2022/02/14 03:21:19;;;;;;;10.13;7.55;;;;;;;;;;5021557;28;20866;-72
2022/02/14 03:23:46;;;;;;;8.95;7.85;;;;;;;;;;5018390;28;20040;-71
2022/02/14 03:26:12;;;;;;;11.90;8.10;;;;;;;;;;5018508;28;20030;-72
2022/02/14 03:28:38;;;;;;;9.55;7.78;;;;;;;;;;4998905;28;20040;-73
2022/02/14 03:31:04;;;;;;;9.70;7.20;;;;;;;;;;5012683;28;20021;-72
2022/02/14 03:33:30;;;;;;;8.82;7.93;;;;;;;;;;5000429;28;20034;-72
2022/02/14 03:35:56;;;;;;;9.35;7.80;;;;;;;;;;5016615;28;20048;-72
2022/02/14 03:38:23;;;;;;;9.02;7.18;;;;;;;;;;5014249;28;20438;-72
2022/02/14 03:40:49;;;;;;;9.90;8.20;;;;;;;;;;5020948;28;20026;-72
2022/02/14 03:43:15;;;;;;;8.88;7.97;;;;;;;;;;5028898;28;20385;-72
2022/02/14 03:45:42;;;;;;;8.88;7.63;;;;;;;;;;5016393;28;20085;-73
2022/02/14 03:48:08;;;;;;;9.57;7.78;;;;;;;;;;5016967;28;20022;-72
2022/02/14 03:50:35;;;;;;;9.75;7.82;;;;;;;;;;5018821;28;20040;-72
2022/02/14 03:53:02;;;;;;;8.95;7.80;;;;;;;;;;5014699;28;20026;-72
2022/02/14 03:55:28;;;;;;;10.10;7.88;;;;;;;;;;5022012;28;20033;-72
2022/02/14 03:57:54;;;;;;;9.75;7.20;;;;;;;;;;5019051;28;20045;-72
2022/02/14 04:00:21;;;;;;;9.27;8.10;;;;;;;;;;5024709;28;20075;-72
2022/02/14 04:02:48;;;;;;;8.50;7.30;;;;;;;;;;4993906;28;20029;-72
2022/02/14 04:05:15;;;;;;;9.23;7.18;;;;;;;;;;5013014;28;20666;-72
2022/02/14 04:07:42;;;;;;;9.00;7.22;;;;;;;;;;5012512;28;20060;-72
2022/02/14 04:10:10;;;;;;;8.18;7.38;;;;;;;;;;5014269;28;20033;-72
2022/02/14 04:12:36;;;;;;;8.32;7.10;;;;;;;;;;5014303;28;20029;-73
2022/02/14 04:15:03;;;;;;;8.02;6.90;;;;;;;;;;5010539;28;20037;-73
2022/02/14 04:17:30;;;;;;;8.82;7.38;;;;;;;;;;5024843;28;20823;-73
2022/02/14 04:19:56;;;;;;;10.73;7.28;;;;;;;;;;5020974;28;20036;-73
2022/02/14 04:22:22;;;;;;;7.82;6.93;;;;;;;;;;5014760;28;20060;-73
2022/02/14 04:24:48;;;;;;;9.25;6.63;;;;;;;;;;5013851;28;20470;-74
2022/02/14 04:27:14;;;;;;;9.18;7.25;;;;;;;;;;5011244;28;20075;-73
2022/02/14 04:29:40;;;;;;;8.68;7.78;;;;;;;;;;5007828;28;20028;-74
2022/02/14 04:32:07;;;;;;;9.05;7.20;;;;;;;;;;5012881;28;20108;-73
2022/02/14 04:34:33;;;;;;;7.93;7.13;;;;;;;;;;5007354;28;20033;-73
2022/02/14 04:37:00;;;;;;;8.57;7.20;;;;;;;;;;5013803;28;20057;-73
2022/02/14 04:39:26;;;;;;;10.50;6.50;;;;;;;;;;4994880;28;20918;-73
2022/02/14 04:41:53;;;;;;;8.93;7.47;;;;;;;;;;5017005;28;20025;-73
2022/02/14 04:44:19;;;;;;;8.40;7.38;;;;;;;;;;5010195;28;20034;-73
2022/02/14 04:46:45;;;;;;;7.80;6.97;;;;;;;;;;5013550;28;20095;-73
2022/02/14 04:49:12;;;;;;;11.48;7.68;;;;;;;;;;4996710;28;20602;-73
2022/02/14 04:51:38;;;;;;;8.48;7.47;;;;;;;;;;5021926;28;20029;-73
2022/02/14 04:54:04;;;;;;;7.80;7.07;;;;;;;;;;5014231;28;20042;-73
2022/02/14 04:56:31;;;;;;;11.48;7.95;;;;;;;;;;5023135;28;20033;-73
2022/02/14 04:58:57;;;;;;;9.73;7.30;;;;;;;;;;5009035;28;20048;-73
2022/02/14 05:01:24;;;;;;;9.50;7.50;;;;;;;;;;5009658;28;20025;-73
2022/02/14 05:03:50;;;;;;;9.75;7.63;;;;;;;;;;4999769;28;20033;-73
2022/02/14 05:06:17;;;;;;;9.27;7.53;;;;;;;;;;5021265;28;20033;-73
2022/02/14 05:08:43;;;;;;;9.60;7.40;;;;;;;;;;5013632;28;20041;-73
2022/02/14 05:11:10;;;;;;;9.25;7.78;;;;;;;;;;5019002;28;20034;-74
2022/02/14 05:13:40;;;;;;;8.32;7.40;;;;;;;;;;5014032;28;20528;-72
2022/02/14 05:16:06;;;;;;;8.90;7.75;;;;;;;;;;5013576;28;20037;-73
2022/02/14 05:18:32;;;;;;;9.80;7.00;;;;;;;;;;5011708;28;20402;-73
2022/02/14 05:20:59;;;;;;;7.97;7.15;;;;;;;;;;5017128;28;20421;-73
2022/02/14 05:23:25;;;;;;;9.77;7.50;;;;;;;;;;5018626;28;20037;-73
2022/02/14 05:25:51;;;;;;;7.80;6.75;;;;;;;;;;5018079;28;20420;-73
2022/02/14 05:28:17;;;;;;;10.75;7.90;;;;;;;;;;5007078;28;20526;-73
2022/02/14 05:30:43;;;;;;;7.88;7.07;;;;;;;;;;5022080;28;20080;-73
2022/02/14 05:33:09;;;;;;;9.95;7.38;;;;;;;;;;5028181;28;20032;-73
2022/02/14 05:35:35;;;;;;;8.65;7.18;;;;;;;;;;4997602;28;20049;-73
2022/02/14 05:38:02;;;;;;;8.60;7.63;;;;;;;;;;5015375;28;20181;-73
2022/02/14 05:40:28;;;;;;;9.48;7.57;;;;;;;;;;5027786;28;20033;-73
2022/02/14 05:42:54;;;;;;;9.25;8.25;;;;;;;;;;5009575;28;20705;-73
2022/02/14 05:45:21;;;;;;;8.30;7.40;;;;;;;;;;5014494;28;20033;-72
2022/02/14 05:47:47;;;;;;;17.40;9.52;;;;;;;;;;5027019;28;20034;-72
2022/02/14 05:50:13;;;;;;;10.95;8.55;;;;;;;;;;5010759;28;20385;-73
2022/02/14 05:52:39;;;;;;;7.68;6.88;;;;;;;;;;5014356;28;20612;-73
2022/02/14 05:55:07;;;;;;;8.15;7.20;;;;;;;;;;5017273;28;20029;-72
2022/02/14 05:57:33;;;;;;;8.07;7.15;;;;;;;;;;5012206;28;20034;-72
2022/02/14 05:59:59;;;;;;;8.93;7.05;;;;;;;;;;5017734;28;20026;-72
2022/02/14 06:02:25;;;;;;;9.65;6.55;;;;;;;;;;4985959;28;20382;-73
2022/02/14 06:04:52;;;;;;;7.57;6.78;;;;;;;;;;5023250;28;20094;-73
2022/02/14 06:07:19;;;;;;;9.90;6.93;;;;;;;;;;5014628;28;20539;-73
2022/02/14 06:09:45;;;;;;;7.60;6.90;;;;;;;;;;5009923;28;20022;-72
2022/02/14 06:12:11;;;;;;;7.30;6.60;;;;;;;;;;5014471;28;20025;-72
2022/02/14 06:14:37;;;;;;;7.45;6.65;;;;;;;;;;5014772;28;20018;-73
2022/02/14 06:17:03;;;;;;;7.53;6.78;;;;;;;;;;5012485;28;20116;-72
2022/02/14 06:19:30;;;;;;;8.02;6.03;;;;;;;;;;5011793;28;20064;-73
2022/02/14 06:21:56;;;;;;;7.53;6.82;;;;;;;;;;5017154;28;20410;-73
2022/02/14 06:24:22;;;;;;;9.70;6.72;;;;;;;;;;5009703;28;20660;-73
2022/02/14 06:26:48;;;;;;;8.93;6.80;;;;;;;;;;5008345;28;20026;-73
2022/02/14 06:29:14;;;;;;;10.15;7.10;;;;;;;;;;5010523;28;20045;-73
2022/02/14 06:31:40;;;;;;;8.43;6.63;;;;;;;;;;5006567;28;20028;-73
2022/02/14 06:34:07;;;;;;;9.52;7.97;;;;;;;;;;5010884;28;20029;-72
2022/02/14 06:36:33;;;;;;;9.25;6.70;;;;;;;;;;5011981;28;20045;-74
2022/02/14 06:39:00;;;;;;;7.07;6.20;;;;;;;;;;5014631;28;20080;-72
2022/02/14 06:41:26;;;;;;;6.88;6.22;;;;;;;;;;5008745;28;20065;-73
2022/02/14 06:43:54;;;;;;;8.00;7.18;;;;;;;;;;5008741;28;20022;-73
2022/02/14 06:46:20;;;;;;;7.82;6.93;;;;;;;;;;5015894;28;20026;-73
2022/02/14 06:48:47;;;;;;;7.82;7.07;;;;;;;;;;4994580;28;20026;-73
2022/02/14 06:51:13;;;;;;;7.78;7.05;;;;;;;;;;5004753;28;20076;-72
2022/02/14 06:53:39;;;;;;;8.50;6.60;;;;;;;;;;5011959;28;20027;-73
2022/02/14 06:56:06;;;;;;;9.63;7.85;;;;;;;;;;4991283;28;20156;-72
2022/02/14 06:58:38;;;;;;;8.30;7.35;;;;;;;;;;5011568;28;20042;-72
2022/02/14 07:01:05;;;;;;;11.75;7.82;;;;;;;;;;5019459;28;20041;-72
2022/02/14 07:03:31;;;;;;;8.65;7.28;;;;;;;;;;5010654;28;20489;-72
2022/02/14 07:05:57;;;;;;;8.13;7.22;;;;;;;;;;5000825;28;20045;-73
2022/02/14 07:08:24;;;;;;;9.73;7.60;;;;;;;;;;5002334;28;20708;-73
2022/02/14 07:10:50;;;;;;;8.45;7.32;;;;;;;;;;5003833;28;20056;-72
2022/02/14 07:13:16;;;;;;;10.55;8.32;;;;;;;;;;5017704;28;20120;-72
2022/02/14 07:15:42;;;;;;;12.50;10.68;;;;;;;;;;5012305;28;20042;-72
2022/02/14 07:18:12;;;;;;;12.13;9.93;;;;;;;;;;5013973;28;20120;-72
2022/02/14 07:20:38;;;;;;;15.43;12.50;;;;;;;;;;5014650;28;20049;-72
2022/02/14 07:23:05;;;;;;;13.18;10.35;;;;;;;;;;5009204;28;20061;-72
2022/02/14 07:25:31;;;;;;;14.27;10.52;;;;;;;;;;5026652;28;20033;-72
2022/02/14 07:27:58;;;;;;;10.48;9.02;;;;;;;;;;5012452;28;20029;-73
2022/02/14 07:30:24;;;;;;;10.80;8.05;;;;;;;;;;5010813;28;20033;-72
2022/02/14 07:32:50;;;;;;;8.38;7.47;;;;;;;;;;5014402;28;20029;-72
2022/02/14 07:35:16;;;;;;;10.27;7.95;;;;;;;;;;5014863;28;20547;-73
2022/02/14 07:37:44;;;;;;;7.40;6.70;;;;;;;;;;5013966;28;20040;-72
2022/02/14 07:40:11;;;;;;;8.75;6.85;;;;;;;;;;5010759;28;20382;-73
2022/02/14 07:42:37;;;;;;;9.27;7.28;;;;;;;;;;5000536;28;20067;-72
2022/02/14 07:45:04;;;;;;;7.80;6.95;;;;;;;;;;5028029;28;20068;-72
2022/02/14 07:47:30;;;;;;;9.43;7.40;;;;;;;;;;5026420;28;20083;-72
2022/02/14 07:49:56;;;;;;;10.93;7.88;;;;;;;;;;5014967;28;20024;-72
2022/02/14 07:52:23;;;;;;;13.73;9.75;;;;;;;;;;5015065;28;20060;-72
2022/02/14 07:54:49;;;;;;;11.48;9.65;;;;;;;;;;5012941;28;20021;-71
2022/02/14 07:57:15;;;;;;;14.70;11.50;;;;;;;;;;5009701;28;20033;-72
2022/02/14 07:59:41;;;;;;;17.92;14.07;;;;;;;;;;5010777;28;20037;-72
2022/02/14 08:02:08;;;;;;;16.50;14.07;;;;;;;;;;5012802;28;20025;-72
2022/02/14 08:04:34;;;;;;;19.45;15.85;;;;;;;;;;5008136;28;20030;-72
2022/02/14 08:07:04;;;;;;;17.02;14.63;;;;;;;;;;5013148;28;20107;-72
2022/02/14 08:09:31;;;;;;;14.10;11.73;;;;;;;;;;5012216;28;20478;-72
2022/02/14 08:11:57;;;;;;;20.92;15.82;;;;;;;;;;5011960;28;20394;-72
2022/02/14 08:14:23;;;;;;;26.52;18.80;;;;;;;;;;5010085;28;20510;-76
2022/02/14 08:16:49;;;;;;;25.63;19.95;;;;;;;;;;5011100;28;20493;-73
2022/02/14 08:19:16;;;;;;;23.30;18.98;;;;;;;;;;5013257;28;20038;-73
2022/02/14 08:21:42;;;;;;;28.05;20.80;;;;;;;;;;4996798;28;20032;-72
2022/02/14 08:24:09;;;;;;;26.85;21.85;;;;;;;;;;5018671;28;20034;-72
2022/02/14 08:26:35;;;;;;;26.60;21.38;;;;;;;;;;5013940;28;20376;-72
2022/02/14 08:29:02;;;;;;;27.08;21.25;;;;;;;;;;5021510;28;20033;-72
2022/02/14 08:31:29;;;;;;;31.20;23.65;;;;;;;;;;5018830;28;20119;-72
2022/02/14 08:33:58;;;;;;;30.52;22.02;;;;;;;;;;5013910;28;20029;-72
2022/02/14 08:36:25;;;;;;;37.25;26.67;;;;;;;;;;5017460;28;20084;-72
2022/02/14 08:38:52;;;;;;;35.63;27.13;;;;;;;;;;5006604;28;20114;-72
2022/02/14 08:41:20;;;;;;;37.65;27.42;;;;;;;;;;5020858;28;20523;-72
2022/02/14 08:43:48;;;;;;;42.58;29.55;;;;;;;;;;5010924;28;20034;-71
2022/02/14 08:46:15;;;;;;;33.85;26.70;;;;;;;;;;5001907;28;20078;-72
2022/02/14 08:48:41;;;;;;;40.58;30.38;;;;;;;;;;5016285;28;20021;-72
2022/02/14 08:51:08;;;;;;;44.28;30.88;;;;;;;;;;5013657;28;20036;-72
2022/02/14 08:53:37;;;;;;;38.22;27.55;;;;;;;;;;5015506;28;20038;-72
2022/02/14 08:56:06;;;;;;;32.72;24.92;;;;;;;;;;5011861;28;20030;-73
2022/02/14 08:58:41;;;;;;;33.70;25.73;;;;;;;;;;5015139;28;20397;-72
2022/02/14 09:01:07;;;;;;;31.58;23.60;;;;;;;;;;5012211;28;20037;-72
2022/02/14 09:03:34;;;;;;;25.80;18.88;;;;;;;;;;5012820;28;20041;-72
2022/02/14 09:06:01;;;;;;;28.70;21.88;;;;;;;;;;5012544;28;20026;-72
2022/02/14 09:08:27;;;;;;;34.17;24.17;;;;;;;;;;5020788;28;20523;-73
2022/02/14 09:10:55;;;;;;;25.08;19.80;;;;;;;;;;5013206;28;20038;-72
2022/02/14 09:13:22;;;;;;;21.92;17.98;;;;;;;;;;5007878;28;20568;-71
2022/02/14 09:15:48;;;;;;;15.48;12.00;;;;;;;;;;5009700;28;20026;-73
2022/02/14 09:18:17;;;;;;;15.77;12.63;;;;;;;;;;5007075;28;20046;-73
2022/02/14 09:20:44;;;;;;;16.88;13.32;;;;;;;;;;4995009;28;20036;-73
2022/02/14 09:23:12;;;;;;;21.80;16.67;;;;;;;;;;5018626;28;20033;-73
2022/02/14 09:25:38;;;;;;;18.88;13.77;;;;;;;;;;5014324;28;20029;-72
2022/02/14 09:30:53;;;;;;;14.82;12.50;;;;;;;;;;5012896;28;20112;-72
2022/02/14 09:33:20;;;;;;;13.65;11.70;;;;;;;;;;5012076;28;20037;-73
2022/02/14 09:35:47;;;;;;;12.77;10.73;;;;;;;;;;5009830;28;20050;-73
2022/02/14 09:38:13;;;;;;;10.20;9.05;;;;;;;;;;5007097;28;20141;-74
2022/02/14 09:40:42;;;;;;;13.05;9.73;;;;;;;;;;5017624;28;20036;-74
2022/02/14 09:43:09;;;;;;;10.52;9.27;;;;;;;;;;5008036;28;20040;-74
2022/02/14 09:45:36;;;;;;;10.13;7.45;;;;;;;;;;5012144;28;20035;-73
2022/02/14 09:48:03;;;;;;;7.70;6.72;;;;;;;;;;5028181;28;20036;-74
2022/02/14 09:50:31;;;;;;;9.07;6.65;;;;;;;;;;5007097;28;20026;-73
2022/02/14 09:52:58;;;;;;;9.40;6.40;;;;;;;;;;4997121;28;20457;-73
2022/02/14 09:55:24;;;;;;;10.73;6.97;;;;;;;;;;5009319;28;20488;-75
2022/02/14 09:57:51;;;;;;;8.90;6.55;;;;;;;;;;5012048;28;20083;-74
2022/02/14 10:00:57;;;;;;;7.55;5.90;;;;;;;;;;5013752;28;20033;-75
2022/02/14 10:03:23;;;;;;;5.90;5.30;;;;;;;;;;5019779;28;20079;-74
2022/02/14 10:05:51;;;;;;;7.00;5.47;;;;;;;;;;5016493;28;20482;-74
2022/02/14 10:08:21;;;;;;;4.88;4.45;;;;;;;;;;5017839;28;20032;-74
2022/02/14 10:10:48;;;;;;;4.75;3.92;;;;;;;;;;4995756;28;20029;-74
2022/02/14 10:13:28;;;;;;;4.82;4.30;;;;;;;;;;4990794;28;20025;-73
2022/02/14 10:15:54;;;;;;;5.20;4.70;;;;;;;;;;5019113;28;20021;-73
2022/02/14 10:18:31;;;;;;;6.13;5.53;;;;;;;;;;5007029;28;20056;-73
2022/02/14 10:21:16;;;;;;;6.95;6.25;;;;;;;;;;4992961;28;20033;-74
2022/02/14 10:24:00;;;;;;;7.15;6.13;;;;;;;;;;5012627;28;20036;-74
2022/02/14 10:26:34;;;;;;;9.75;6.25;;;;;;;;;;5021374;28;20061;-74
2022/02/14 10:29:11;;;;;;;10.02;6.35;;;;;;;;;;4985230;28;20029;-74
2022/02/14 10:31:41;;;;;;;7.45;6.47;;;;;;;;;;5011833;28;20056;-74
2022/02/14 10:34:12;;;;;;;10.75;7.72;;;;;;;;;;5005217;28;21390;-75
2022/02/14 10:36:40;;;;;;;7.57;6.57;;;;;;;;;;5014635;28;20041;-74
2022/02/14 10:39:06;;;;;;;7.13;6.43;;;;;;;;;;5011564;28;20144;-74
2022/02/14 10:41:32;;;;;;;9.82;7.53;;;;;;;;;;5012355;28;20030;-75
2022/02/14 10:47:11;;;;;;;9.88;8.20;;;;;;;;;;5013175;28;20056;-74
2022/02/14 10:49:37;;;;;;;10.77;8.85;;;;;;;;;;5012755;28;20028;-74
2022/02/14 10:52:04;;;;;;;10.15;7.70;;;;;;;;;;5014275;28;20033;-75
2022/02/14 10:54:35;;;;;;;9.68;7.90;;;;;;;;;;5017943;28;20036;-74
2022/02/14 10:57:02;;;;;;;10.23;7.55;;;;;;;;;;5012395;28;20037;-75
2022/02/14 10:59:29;;;;;;;8.57;7.15;;;;;;;;;;5003738;28;20040;-74
2022/02/14 11:01:56;;;;;;;11.93;7.40;;;;;;;;;;5006766;28;20113;-74
2022/02/14 11:04:22;;;;;;;7.95;7.15;;;;;;;;;;5000335;28;20079;-74
2022/02/14 11:06:49;;;;;;;7.95;6.95;;;;;;;;;;5005580;28;20034;-74
2022/02/14 11:09:15;;;;;;;9.68;7.03;;;;;;;;;;5005302;28;20486;-74
2022/02/14 11:11:46;;;;;;;9.70;8.45;;;;;;;;;;5020781;28;20119;-73
2022/02/14 11:14:13;;;;;;;9.25;7.22;;;;;;;;;;5010666;28;20468;-74
2022/02/14 11:16:40;;;;;;;9.18;7.18;;;;;;;;;;5018363;28;20022;-73
2022/02/14 11:19:09;;;;;;;8.75;7.10;;;;;;;;;;5018011;28;20042;-74
2022/02/14 11:21:36;;;;;;;7.75;6.63;;;;;;;;;;5020062;28;20041;-74
2022/02/14 11:24:09;;;;;;;8.00;6.07;;;;;;;;;;5005489;28;20448;-74
2022/02/14 11:26:55;;;;;;;8.10;5.20;;;;;;;;;;5020817;28;20029;-74
2022/02/14 11:29:24;;;;;;;12.90;5.63;;;;;;;;;;5018861;28;20126;-75
2022/02/14 11:31:51;;;;;;;5.85;4.57;;;;;;;;;;5015619;28;20030;-75
2022/02/14 11:34:17;;;;;;;6.15;4.95;;;;;;;;;;5019158;28;20075;-72
2022/02/14 11:36:58;;;;;;;5.70;4.95;;;;;;;;;;5001206;28;20890;-73
2022/02/14 11:39:29;;;;;;;5.50;5.00;;;;;;;;;;5010139;28;20041;-73
2022/02/14 11:42:00;;;;;;;5.45;4.55;;;;;;;;;;4997698;28;20034;-73
2022/02/14 11:44:27;;;;;;;5.22;4.10;;;;;;;;;;5007281;28;20041;-73
2022/02/14 11:46:56;;;;;;;5.78;4.35;;;;;;;;;;5017980;28;20021;-73
2022/02/14 11:49:23;;;;;;;4.30;3.78;;;;;;;;;;5018879;28;20112;-73
2022/02/14 11:51:53;;;;;;;5.00;4.47;;;;;;;;;;5017755;28;20025;-73
2022/02/14 11:54:32;;;;;;;4.88;4.05;;;;;;;;;;5017062;28;20037;-73
2022/02/14 11:57:17;;;;;;;4.97;4.47;;;;;;;;;;5000777;28;20061;-74
2022/02/14 11:59:44;;;;;;;5.68;4.10;;;;;;;;;;5018664;28;20272;-73
2022/02/14 12:02:10;;;;;;;4.40;4.00;;;;;;;;;;5019401;28;20482;-74
2022/02/14 12:04:40;;;;;;;6.07;4.63;;;;;;;;;;5020109;28;20813;-73
2022/02/14 12:07:16;;;;;;;7.55;4.07;;;;;;;;;;5019910;28;20029;-74
2022/02/14 12:09:57;;;;;;;7.85;5.00;;;;;;;;;;5021856;28;20113;-73
2022/02/14 12:12:39;;;;;;;5.40;3.83;;;;;;;;;;5021272;28;20088;-73
2022/02/14 12:20:38;;;;;;;4.25;3.72;;;;;;;;;;5005559;28;20575;-73
2022/02/14 12:23:05;;;;;;;6.00;5.07;;;;;;;;;;5019619;28;20022;-73
2022/02/14 12:25:31;;;;;;;4.28;3.88;;;;;;;;;;4997922;28;20037;-73
2022/02/14 12:27:58;;;;;;;8.43;4.55;;;;;;;;;;5013397;28;20095;-73
2022/02/14 12:30:28;;;;;;;6.75;4.93;;;;;;;;;;5017630;28;20294;-73
2022/02/14 12:33:11;;;;;;;5.30;4.30;;;;;;;;;;5020445;28;20025;-74
2022/02/14 12:35:39;;;;;;;6.18;4.47;;;;;;;;;;5021279;28;20107;-74
2022/02/14 12:38:05;;;;;;;5.10;4.40;;;;;;;;;;5020052;28;20548;-73
2022/02/14 12:40:50;;;;;;;6.70;4.70;;;;;;;;;;5012262;28;20474;-73
2022/02/14 12:43:25;;;;;;;6.50;4.53;;;;;;;;;;5017391;28;20033;-73
2022/02/14 12:45:53;;;;;;;6.32;5.07;;;;;;;;;;5021305;28;20052;-73
2022/02/14 12:48:30;;;;;;;6.43;5.22;;;;;;;;;;5021166;28;20037;-73
2022/02/14 12:50:56;;;;;;;5.40;4.07;;;;;;;;;;5003954;28;20501;-73
2022/02/14 12:53:23;;;;;;;5.03;4.28;;;;;;;;;;5011275;28;20066;-73
2022/02/14 12:55:49;;;;;;;5.22;4.72;;;;;;;;;;5013314;28;20025;-73
2022/02/14 12:58:16;;;;;;;5.10;4.13;;;;;;;;;;5014963;28;20079;-74
2022/02/14 13:00:43;;;;;;;6.93;4.90;;;;;;;;;;5018006;28;20033;-73
2022/02/14 13:03:09;;;;;;;4.85;4.30;;;;;;;;;;5028890;28;20107;-73
2022/02/14 13:05:36;;;;;;;7.88;5.03;;;;;;;;;;5020175;28;20029;-73
2022/02/14 13:08:04;;;;;;;5.70;5.07;;;;;;;;;;5022184;28;20030;-73
2022/02/14 13:10:30;;;;;;;9.25;4.72;;;;;;;;;;5021256;28;20109;-74
2022/02/14 13:12:58;;;;;;;7.15;5.03;;;;;;;;;;5017421;28;20508;-73
2022/02/14 13:15:24;;;;;;;5.30;4.65;;;;;;;;;;5003455;28;20057;-73
2022/02/14 13:17:51;;;;;;;8.88;5.18;;;;;;;;;;5019704;28;20037;-73
2022/02/14 13:20:17;;;;;;;6.10;5.03;;;;;;;;;;5016526;28;20049;-72
2022/02/14 13:22:44;;;;;;;5.20;4.72;;;;;;;;;;5020587;28;20674;-72
2022/02/14 13:25:19;;;;;;;8.18;5.47;;;;;;;;;;5019521;28;20040;-72
2022/02/14 13:27:45;;;;;;;6.57;5.47;;;;;;;;;;5019553;28;20044;-73
2022/02/14 13:30:13;;;;;;;6.13;5.20;;;;;;;;;;5019160;28;20055;-73
2022/02/14 13:32:41;;;;;;;6.32;5.35;;;;;;;;;;5020599;28;20109;-73
2022/02/14 13:35:12;;;;;;;7.13;5.68;;;;;;;;;;5027950;28;20056;-73
2022/02/14 13:37:52;;;;;;;7.47;6.03;;;;;;;;;;5020560;28;20617;-73
2022/02/14 13:40:19;;;;;;;6.93;6.22;;;;;;;;;;5019896;28;20079;-73
2022/02/14 13:42:45;;;;;;;6.32;5.72;;;;;;;;;;5009754;28;20645;-73
2022/02/14 13:45:11;;;;;;;9.15;6.43;;;;;;;;;;5007491;28;20037;-73
2022/02/14 13:47:38;;;;;;;7.65;6.65;;;;;;;;;;5020292;28;20037;-72
2022/02/14 13:50:22;;;;;;;7.38;6.63;;;;;;;;;;5019670;28;20036;-73
2022/02/14 13:52:49;;;;;;;8.43;7.45;;;;;;;;;;5019791;28;20029;-73
2022/02/14 13:55:17;;;;;;;8.10;7.28;;;;;;;;;;5019433;28;20042;-73
2022/02/14 13:57:43;;;;;;;8.55;7.65;;;;;;;;;;5016795;28;20083;-74
2022/02/14 14:00:29;;;;;;;8.38;7.55;;;;;;;;;;5019940;28;20033;-73
2022/02/14 14:03:03;;;;;;;9.60;8.20;;;;;;;;;;5016739;28;20025;-73
2022/02/14 14:05:36;;;;;;;9.63;7.72;;;;;;;;;;5014471;28;20030;-72
2022/02/14 14:08:02;;;;;;;7.90;7.10;;;;;;;;;;5019410;28;20033;-73
2022/02/14 14:10:37;;;;;;;9.30;8.07;;;;;;;;;;5019715;28;20034;-72
2022/02/14 14:13:04;;;;;;;8.35;7.50;;;;;;;;;;5018677;28;20060;-73
2022/02/14 14:15:30;;;;;;;8.40;7.53;;;;;;;;;;5018900;28;20033;-73
2022/02/14 14:17:56;;;;;;;9.27;7.75;;;;;;;;;;5019593;28;20057;-73
2022/02/14 14:20:24;;;;;;;10.02;8.57;;;;;;;;;;5019372;28;20037;-72
2022/02/14 14:22:51;;;;;;;8.68;7.85;;;;;;;;;;5019815;28;20018;-73
2022/02/14 14:25:17;;;;;;;8.85;7.90;;;;;;;;;;5015785;28;20116;-73
2022/02/14 14:27:46;;;;;;;10.68;8.50;;;;;;;;;;4999377;28;20168;-73
2022/02/14 14:30:13;;;;;;;9.68;8.25;;;;;;;;;;5018547;28;20028;-72
2022/02/14 14:32:39;;;;;;;9.30;8.35;;;;;;;;;;5019482;28;20025;-73
2022/02/14 14:35:05;;;;;;;11.52;8.13;;;;;;;;;;5035754;28;20508;-72
2022/02/14 14:37:32;;;;;;;9.80;7.88;;;;;;;;;;5019096;28;20038;-73
2022/02/14 14:39:58;;;;;;;10.38;8.43;;;;;;;;;;4998245;28;20046;-73
2022/02/14 14:42:25;;;;;;;11.52;8.52;;;;;;;;;;5009131;28;20030;-73
2022/02/14 14:44:51;;;;;;;9.07;8.15;;;;;;;;;;5019290;28;20108;-72
2022/02/14 14:47:17;;;;;;;10.77;8.65;;;;;;;;;;5019560;28;20024;-72
2022/02/14 14:49:44;;;;;;;9.73;8.65;;;;;;;;;;5019679;28;20037;-72